createdAt,value
2019-03-17T00:02:01.063Z,1.40
2019-03-17T00:04:31.779Z,1.10
2019-03-17T00:07:00.962Z,1.00
2019-03-17T00:09:30.269Z,1.13
2019-03-17T00:11:59.800Z,1.00
2019-03-17T00:14:29.053Z,0.80
2019-03-17T00:16:58.222Z,1.03
2019-03-17T00:19:27.712Z,1.10
2019-03-17T00:21:56.919Z,1.03
2019-03-17T00:24:26.501Z,1.00
2019-03-17T00:26:56.034Z,1.00
2019-03-17T00:29:24.937Z,1.40
2019-03-17T00:31:53.867Z,1.30
2019-03-17T00:34:23.099Z,1.27
2019-03-17T00:36:52.377Z,1.97
2019-03-17T00:39:21.932Z,1.00
2019-03-17T00:41:51.134Z,1.00
2019-03-17T00:44:20.441Z,1.03
2019-03-17T00:46:49.399Z,1.30
2019-03-17T00:49:18.597Z,1.30
2019-03-17T00:51:47.513Z,1.60
2019-03-17T00:54:17.325Z,1.60
2019-03-17T00:56:46.601Z,1.20
2019-03-17T00:59:15.841Z,0.97
2019-03-17T01:01:45.149Z,1.20
2019-03-17T01:04:14.109Z,1.70
2019-03-17T01:06:43.120Z,2.17
2019-03-17T01:09:12.924Z,2.13
2019-03-17T01:11:42.249Z,2.37
2019-03-17T01:14:11.594Z,1.57
2019-03-17T01:16:40.793Z,1.27
2019-03-17T01:19:09.972Z,1.20
2019-03-17T01:21:39.192Z,1.93
2019-03-17T01:24:10.370Z,1.60
2019-03-17T01:26:39.457Z,1.87
2019-03-17T01:29:08.753Z,1.37
2019-03-17T01:31:37.980Z,1.77
2019-03-17T01:34:07.204Z,1.43
2019-03-17T01:36:37.091Z,1.60
2019-03-17T01:39:07.178Z,1.30
2019-03-17T01:41:36.395Z,1.40
2019-03-17T01:44:13.885Z,2.47
2019-03-17T01:46:43.125Z,1.87
2019-03-17T01:49:13.010Z,2.20
2019-03-17T01:51:41.935Z,2.20
2019-03-17T01:54:11.528Z,2.13
2019-03-17T01:56:40.997Z,2.17
2019-03-17T01:59:10.237Z,2.20
2019-03-17T02:01:39.728Z,2.17
2019-03-17T02:04:08.677Z,1.83
2019-03-17T02:06:38.232Z,1.87
2019-03-17T02:09:07.556Z,1.77
2019-03-17T02:11:36.681Z,1.67
2019-03-17T02:14:05.590Z,1.57
2019-03-17T02:16:34.563Z,1.40
2019-03-17T02:19:04.088Z,1.70
2019-03-17T02:21:33.602Z,1.93
2019-03-17T02:24:02.538Z,1.57
2019-03-17T02:26:32.143Z,1.50
2019-03-17T02:29:01.405Z,1.30
2019-03-17T02:31:31.300Z,1.50
2019-03-17T02:34:00.225Z,1.70
2019-03-17T02:36:29.203Z,1.40
2019-03-17T02:38:58.760Z,1.40
2019-03-17T02:41:27.736Z,1.20
2019-03-17T02:43:57.064Z,1.00
2019-03-17T02:46:26.438Z,1.30
2019-03-17T02:48:55.668Z,1.30
2019-03-17T02:51:24.883Z,1.27
2019-03-17T02:53:53.826Z,1.43
2019-03-17T02:56:23.313Z,1.83
2019-03-17T02:58:53.371Z,0.90
2019-03-17T03:01:22.683Z,1.23
2019-03-17T03:03:52.035Z,1.10
2019-03-17T03:06:21.057Z,1.40
2019-03-17T03:08:50.327Z,1.87
2019-03-17T03:11:19.569Z,1.30
2019-03-17T03:13:48.718Z,1.63
2019-03-17T03:16:17.747Z,1.50
2019-03-17T03:18:47.283Z,1.40
2019-03-17T03:21:16.682Z,1.10
2019-03-17T03:23:46.256Z,1.33
2019-03-17T03:26:15.269Z,1.50
2019-03-17T03:28:44.825Z,0.70
2019-03-17T03:31:13.825Z,0.90
2019-03-17T03:33:43.034Z,1.40
2019-03-17T03:36:12.254Z,1.20
2019-03-17T03:38:41.692Z,1.20
2019-03-17T03:41:10.675Z,1.93
2019-03-17T03:43:39.589Z,1.50
2019-03-17T03:46:08.824Z,1.50
2019-03-17T03:48:38.077Z,1.70
2019-03-17T03:51:07.342Z,1.63
2019-03-17T03:53:37.398Z,1.57
2019-03-17T03:56:07.211Z,1.60
2019-03-17T03:58:36.442Z,1.30
2019-03-17T04:01:05.640Z,1.70
2019-03-17T04:03:34.925Z,0.87
2019-03-17T04:06:04.239Z,1.30
2019-03-17T04:08:33.539Z,1.40
2019-03-17T04:11:02.501Z,1.07
2019-03-17T04:13:31.421Z,0.93
2019-03-17T04:16:00.317Z,1.37
2019-03-17T04:18:29.507Z,1.27
2019-03-17T04:20:58.736Z,1.00
2019-03-17T04:23:28.795Z,0.87
2019-03-17T04:25:58.137Z,1.03
2019-03-17T04:28:27.375Z,1.57
2019-03-17T04:30:56.549Z,1.10
2019-03-17T04:33:25.448Z,1.43
2019-03-17T04:35:54.784Z,1.00
2019-03-17T04:38:23.978Z,1.00
2019-03-17T04:40:52.990Z,1.13
2019-03-17T04:43:22.782Z,1.20
2019-03-17T04:45:52.290Z,1.47
2019-03-17T04:48:21.519Z,1.03
2019-03-17T04:50:50.969Z,1.00
2019-03-17T04:53:20.148Z,0.90
2019-03-17T04:55:49.725Z,0.93
2019-03-17T04:58:18.769Z,1.27
2019-03-17T05:00:48.608Z,1.00
2019-03-17T05:03:17.584Z,1.10
2019-03-17T05:05:46.494Z,0.80
2019-03-17T05:08:15.413Z,1.00
2019-03-17T05:10:44.943Z,1.20
2019-03-17T05:13:14.120Z,1.67
2019-03-17T05:15:43.585Z,0.93
2019-03-17T05:18:12.775Z,0.80
2019-03-17T05:20:41.745Z,1.43
2019-03-17T05:23:10.654Z,1.47
2019-03-17T05:25:39.629Z,1.10
2019-03-17T05:28:09.106Z,1.10
2019-03-17T05:30:38.252Z,1.00
2019-03-17T05:33:07.268Z,0.80
2019-03-17T05:35:36.478Z,0.80
2019-03-17T05:38:05.673Z,1.03
2019-03-17T05:40:34.844Z,1.30
2019-03-17T05:43:04.362Z,1.30
2019-03-17T05:45:33.724Z,1.20
2019-03-17T05:48:02.926Z,0.90
2019-03-17T05:50:31.841Z,1.47
2019-03-17T05:53:01.341Z,1.20
2019-03-17T05:55:30.790Z,0.97
2019-03-17T05:58:00.874Z,0.93
2019-03-17T06:00:29.804Z,1.33
2019-03-17T06:02:58.956Z,0.80
2019-03-17T06:05:28.053Z,1.27
2019-03-17T06:07:57.398Z,1.37
2019-03-17T06:10:26.676Z,1.43
2019-03-17T06:12:55.588Z,1.10
2019-03-17T06:15:24.609Z,0.97
2019-03-17T06:17:53.963Z,1.07
2019-03-17T06:20:23.204Z,0.90
2019-03-17T06:22:52.401Z,0.93
2019-03-17T06:25:21.978Z,0.93
2019-03-17T06:27:51.349Z,0.80
2019-03-17T06:30:20.877Z,1.20
2019-03-17T06:32:50.077Z,0.60
2019-03-17T06:35:19.263Z,0.70
2019-03-17T06:37:48.505Z,0.60
2019-03-17T06:40:17.692Z,1.10
2019-03-17T06:42:46.867Z,0.80
2019-03-17T06:45:15.759Z,0.90
2019-03-17T06:47:44.842Z,0.90
2019-03-17T06:50:13.730Z,1.10
2019-03-17T06:52:42.628Z,0.90
2019-03-17T06:55:11.069Z,0.87
2019-03-17T06:57:40.001Z,1.10
2019-03-17T07:00:09.602Z,0.83
2019-03-17T07:02:38.564Z,0.80
2019-03-17T07:05:07.878Z,0.90
2019-03-17T07:07:43.856Z,0.97
2019-03-17T07:10:08.105Z,1.03
2019-03-17T07:12:37.758Z,0.90
2019-03-17T07:15:06.766Z,1.00
2019-03-17T07:17:36.669Z,1.10
2019-03-17T07:20:06.564Z,1.00
2019-03-17T07:22:35.755Z,0.77
2019-03-17T07:25:05.082Z,0.77
2019-03-17T07:27:34.576Z,0.73
2019-03-17T07:30:03.806Z,0.70
2019-03-17T07:32:33.065Z,0.93
2019-03-17T07:35:03.382Z,1.40
2019-03-17T07:37:32.283Z,0.80
2019-03-17T07:40:01.573Z,1.07
2019-03-17T07:42:32.575Z,0.90
2019-03-17T07:45:02.575Z,1.00
2019-03-17T07:47:31.768Z,0.80
2019-03-17T07:50:00.745Z,0.73
2019-03-17T07:52:30.432Z,1.00
2019-03-17T07:54:59.674Z,1.20
2019-03-17T07:57:28.665Z,0.70
2019-03-17T07:59:58.251Z,0.87
2019-03-17T08:02:27.593Z,0.80
2019-03-17T08:04:56.589Z,0.70
2019-03-17T08:07:26.417Z,0.87
2019-03-17T08:09:55.662Z,1.00
2019-03-17T08:12:24.597Z,1.10
2019-03-17T08:14:57.557Z,1.00
2019-03-17T08:17:25.554Z,0.87
2019-03-17T08:19:54.851Z,1.00
2019-03-17T08:22:24.500Z,1.07
2019-03-17T08:24:53.747Z,1.00
2019-03-17T08:27:23.337Z,1.10
2019-03-17T08:29:52.997Z,0.87
2019-03-17T08:32:22.202Z,0.80
2019-03-17T08:34:51.419Z,0.83
2019-03-17T08:37:20.329Z,1.10
2019-03-17T08:39:49.580Z,0.80
2019-03-17T08:42:20.521Z,0.90
2019-03-17T08:44:49.995Z,1.73
2019-03-17T08:47:18.953Z,0.97
2019-03-17T08:49:48.474Z,1.90
2019-03-17T08:52:17.533Z,1.00
2019-03-17T08:54:47.228Z,1.10
2019-03-17T08:57:16.193Z,1.10
2019-03-17T08:59:45.545Z,1.50
2019-03-17T09:02:14.861Z,0.90
2019-03-17T09:04:43.852Z,1.10
2019-03-17T09:07:13.199Z,0.90
2019-03-17T09:09:42.554Z,0.90
2019-03-17T09:12:11.914Z,1.37
2019-03-17T09:14:41.578Z,1.17
2019-03-17T09:17:14.618Z,0.90
2019-03-17T09:19:42.231Z,1.27
2019-03-17T09:22:11.241Z,1.20
2019-03-17T09:24:40.795Z,0.90
2019-03-17T09:27:10.110Z,1.50
2019-03-17T09:29:39.642Z,1.37
2019-03-17T09:32:08.989Z,1.20
2019-03-17T09:34:38.042Z,1.13
2019-03-17T09:37:07.388Z,0.93
2019-03-17T09:39:36.749Z,1.30
2019-03-17T09:42:06.092Z,0.87
2019-03-17T09:44:35.629Z,0.90
2019-03-17T09:47:04.838Z,1.10
2019-03-17T09:49:34.137Z,1.40
2019-03-17T09:52:03.173Z,1.10
2019-03-17T09:54:32.163Z,0.90
2019-03-17T09:57:01.136Z,1.30
2019-03-17T09:59:30.690Z,1.77
2019-03-17T10:02:00.731Z,1.37
2019-03-17T10:04:30.039Z,1.00
2019-03-17T10:06:59.379Z,1.60
2019-03-17T10:09:28.627Z,1.40
2019-03-17T10:11:57.877Z,1.00
2019-03-17T10:14:26.907Z,0.73
2019-03-17T10:16:56.149Z,1.00
2019-03-17T10:19:25.365Z,0.90
2019-03-17T10:21:54.606Z,1.40
2019-03-17T10:24:23.671Z,0.90
2019-03-17T10:26:52.964Z,0.93
2019-03-17T10:29:22.345Z,1.00
2019-03-17T10:31:51.669Z,1.10
2019-03-17T10:34:20.978Z,0.90
2019-03-17T10:36:50.281Z,1.40
2019-03-17T10:39:19.922Z,1.00
2019-03-17T10:41:48.944Z,1.00
2019-03-17T10:44:18.500Z,1.30
2019-03-17T10:46:47.899Z,1.20
2019-03-17T10:49:17.529Z,1.03
2019-03-17T10:51:46.956Z,0.80
2019-03-17T10:54:16.291Z,0.90
2019-03-17T10:56:45.814Z,1.07
2019-03-17T10:59:15.045Z,1.60
2019-03-17T11:01:44.651Z,1.00
2019-03-17T11:04:14.025Z,0.90
2019-03-17T11:06:42.975Z,1.20
2019-03-17T11:09:24.396Z,1.30
2019-03-17T11:11:43.437Z,1.07
2019-03-17T11:14:12.383Z,1.30
2019-03-17T11:16:42.521Z,1.00
2019-03-17T11:19:12.105Z,1.10
2019-03-17T11:21:41.781Z,1.03
2019-03-17T11:24:11.159Z,0.90
2019-03-17T11:26:40.852Z,1.00
2019-03-17T11:29:10.560Z,1.27
2019-03-17T11:31:39.846Z,1.30
2019-03-17T11:34:08.906Z,1.20
2019-03-17T11:36:38.511Z,1.10
2019-03-17T11:39:08.166Z,1.30
2019-03-17T11:41:37.765Z,1.50
2019-03-17T11:44:07.039Z,1.17
2019-03-17T11:46:36.285Z,1.00
2019-03-17T11:49:05.309Z,1.27
2019-03-17T11:51:34.240Z,1.50
2019-03-17T11:54:03.276Z,0.90
2019-03-17T11:56:33.285Z,0.90
2019-03-17T11:59:02.921Z,1.00
2019-03-17T12:01:31.967Z,0.93
2019-03-17T12:04:01.279Z,1.47
2019-03-17T12:06:30.879Z,1.20
2019-03-17T12:09:00.608Z,2.37
2019-03-17T12:11:29.885Z,1.90
2019-03-17T12:13:59.177Z,1.53
2019-03-17T12:16:28.585Z,1.40
2019-03-17T12:18:57.830Z,1.23
2019-03-17T12:21:27.070Z,1.37
2019-03-17T12:23:56.078Z,1.20
2019-03-17T12:26:25.427Z,1.37
2019-03-17T12:28:54.654Z,1.37
2019-03-17T12:31:23.639Z,1.53
2019-03-17T12:33:52.855Z,1.00
2019-03-17T12:36:23.249Z,1.17
2019-03-17T12:38:52.569Z,1.20
2019-03-17T12:41:21.842Z,1.33
2019-03-17T12:43:51.546Z,0.97
2019-03-17T12:46:21.190Z,1.07
2019-03-17T12:48:50.220Z,2.43
2019-03-17T12:51:19.380Z,1.20
2019-03-17T12:53:49.977Z,1.57
2019-03-17T12:56:18.962Z,1.53
2019-03-17T12:58:47.950Z,1.50
2019-03-17T13:01:17.159Z,1.33
2019-03-17T13:03:48.789Z,1.27
2019-03-17T13:06:18.014Z,1.00
2019-03-17T13:08:47.250Z,1.60
2019-03-17T13:11:16.515Z,1.60
2019-03-17T13:13:46.178Z,1.20
2019-03-17T13:16:16.420Z,1.10
2019-03-17T13:18:46.015Z,1.50
2019-03-17T13:21:15.230Z,1.00
2019-03-17T13:23:44.807Z,1.53
2019-03-17T13:26:14.430Z,1.60
2019-03-17T13:28:44.010Z,1.37
2019-03-17T13:31:13.298Z,1.40
2019-03-17T13:33:42.669Z,1.10
2019-03-17T13:36:12.028Z,2.23
2019-03-17T13:38:41.980Z,3.40
2019-03-17T13:41:11.460Z,1.37
2019-03-17T13:43:41.014Z,3.63
2019-03-17T13:46:10.330Z,3.20
2019-03-17T13:48:39.328Z,2.87
2019-03-17T20:23:12.780Z,1.20
2019-03-17T20:25:42.432Z,0.97
2019-03-17T20:28:11.890Z,1.50
2019-03-17T20:30:41.460Z,1.53
2019-03-17T20:33:10.760Z,1.57
2019-03-17T20:35:40.308Z,0.87
2019-03-17T20:38:09.708Z,1.27
2019-03-17T20:40:40.103Z,1.40
2019-03-17T20:43:20.254Z,0.93
2019-03-17T20:45:41.752Z,0.97
2019-03-17T20:48:12.689Z,0.70
2019-03-17T20:50:46.513Z,0.87
2019-03-17T20:53:16.695Z,1.00
2019-03-17T20:55:47.826Z,1.13
2019-03-17T20:58:18.350Z,1.30
2019-03-17T21:00:48.243Z,1.00
2019-03-17T21:24:24.789Z,1.10
2019-03-17T21:59:26.143Z,0.87
2019-03-17T22:01:56.592Z,1.00
2019-03-17T22:04:30.905Z,0.60
2019-03-17T22:07:00.234Z,0.80
2019-03-17T22:09:29.557Z,0.90
2019-03-17T22:11:59.709Z,0.60
2019-03-17T22:14:28.956Z,0.80
2019-03-17T22:16:58.112Z,1.47
2019-03-17T22:19:31.417Z,1.20
2019-03-17T22:22:01.437Z,0.73
2019-03-17T22:24:30.563Z,0.80
2019-03-17T22:27:00.131Z,0.97
2019-03-17T22:29:29.469Z,0.70
2019-03-17T22:32:13.262Z,0.73
2019-03-17T22:35:01.554Z,0.60
2019-03-17T22:37:31.219Z,0.70
2019-03-17T22:40:35.257Z,0.73
2019-03-17T22:43:04.601Z,0.70
2019-03-17T22:45:34.665Z,0.90
2019-03-17T22:48:06.434Z,0.70
2019-03-17T22:50:56.145Z,1.17
2019-03-17T22:53:25.931Z,1.00
2019-03-17T22:55:56.775Z,0.60
2019-03-17T22:58:26.066Z,0.73
2019-03-17T23:00:56.285Z,0.80
2019-03-17T23:03:25.828Z,0.97
2019-03-17T23:05:56.413Z,0.73
2019-03-17T23:08:26.053Z,0.80
2019-03-17T23:11:14.561Z,0.50
2019-03-17T23:13:43.563Z,0.57
2019-03-17T23:16:12.583Z,0.77
2019-03-17T23:18:41.615Z,0.60
2019-03-17T23:21:10.877Z,0.90
2019-03-17T23:23:41.232Z,0.70
2019-03-17T23:26:10.963Z,0.70
2019-03-17T23:28:40.594Z,0.60
2019-03-17T23:31:29.018Z,0.70
2019-03-17T23:33:58.355Z,0.50
2019-03-17T23:36:28.071Z,0.60
2019-03-17T23:38:57.420Z,0.70
2019-03-17T23:41:27.122Z,0.60
2019-03-17T23:43:57.252Z,0.50
2019-03-17T23:46:27.480Z,0.63
2019-03-17T23:48:57.322Z,0.77
2019-03-17T23:51:54.582Z,0.63
2019-03-17T23:54:24.775Z,0.50
2019-03-17T23:56:55.173Z,0.50
2019-03-17T23:59:24.885Z,0.50
